sensor_id;sensor_type;location;lat;lon;timestamp;P1;durP1;ratioP1;P2;durP2;ratioP2
11121;SDS011;5615;49.304;10.576;2024-01-30T00:01:51;37.83;;;24.43;;
11121;SDS011;5615;49.304;10.576;2024-01-30T00:04:18;38.90;;;24.20;;
11121;SDS011;5615;49.304;10.576;2024-01-30T00:06:45;39.43;;;23.90;;
11121;SDS011;5615;49.304;10.576;2024-01-30T00:09:13;36.63;;;23.07;;
11121;SDS011;5615;49.304;10.576;2024-01-30T00:11:40;42.03;;;23.60;;
11121;SDS011;5615;49.304;10.576;2024-01-30T00:14:06;40.87;;;24.20;;
11121;SDS011;5615;49.304;10.576;2024-01-30T00:16:33;39.97;;;24.47;;
11121;SDS011;5615;49.304;10.576;2024-01-30T00:19:00;37.67;;;23.60;;
11121;SDS011;5615;49.304;10.576;2024-01-30T00:21:27;35.60;;;23.07;;
11121;SDS011;5615;49.304;10.576;2024-01-30T00:23:54;39.57;;;23.80;;
11121;SDS011;5615;49.304;10.576;2024-01-30T00:26:22;34.87;;;23.73;;
11121;SDS011;5615;49.304;10.576;2024-01-30T00:28:48;34.73;;;22.47;;
11121;SDS011;5615;49.304;10.576;2024-01-30T00:31:15;35.80;;;23.80;;
11121;SDS011;5615;49.304;10.576;2024-01-30T00:33:42;32.67;;;22.03;;
11121;SDS011;5615;49.304;10.576;2024-01-30T00:36:09;35.47;;;22.70;;
11121;SDS011;5615;49.304;10.576;2024-01-30T00:38:36;35.00;;;21.93;;
11121;SDS011;5615;49.304;10.576;2024-01-30T00:41:03;33.30;;;20.93;;
11121;SDS011;5615;49.304;10.576;2024-01-30T00:43:31;33.93;;;22.23;;
11121;SDS011;5615;49.304;10.576;2024-01-30T00:45:58;31.27;;;20.47;;
11121;SDS011;5615;49.304;10.576;2024-01-30T00:48:25;30.23;;;20.83;;
11121;SDS011;5615;49.304;10.576;2024-01-30T00:50:51;33.00;;;21.83;;
11121;SDS011;5615;49.304;10.576;2024-01-30T00:53:18;30.37;;;20.70;;
11121;SDS011;5615;49.304;10.576;2024-01-30T00:55:45;31.43;;;21.10;;
11121;SDS011;5615;49.304;10.576;2024-01-30T00:58:12;35.83;;;22.57;;
11121;SDS011;5615;49.304;10.576;2024-01-30T01:00:40;29.77;;;21.00;;
11121;SDS011;5615;49.304;10.576;2024-01-30T01:03:06;31.13;;;19.97;;
11121;SDS011;5615;49.304;10.576;2024-01-30T01:05:33;33.03;;;20.87;;
11121;SDS011;5615;49.304;10.576;2024-01-30T01:08:00;31.77;;;20.67;;
11121;SDS011;5615;49.304;10.576;2024-01-30T01:10:27;32.67;;;21.17;;
11121;SDS011;5615;49.304;10.576;2024-01-30T01:12:53;29.67;;;20.07;;
11121;SDS011;5615;49.304;10.576;2024-01-30T01:15:19;31.93;;;21.30;;
11121;SDS011;5615;49.304;10.576;2024-01-30T01:17:47;31.40;;;21.00;;
11121;SDS011;5615;49.304;10.576;2024-01-30T01:20:14;29.00;;;20.43;;
11121;SDS011;5615;49.304;10.576;2024-01-30T01:22:41;29.10;;;19.93;;
11121;SDS011;5615;49.304;10.576;2024-01-30T01:25:08;32.03;;;21.27;;
11121;SDS011;5615;49.304;10.576;2024-01-30T01:27:35;33.93;;;21.13;;
11121;SDS011;5615;49.304;10.576;2024-01-30T01:30:06;33.57;;;20.60;;
11121;SDS011;5615;49.304;10.576;2024-01-30T01:32:35;28.13;;;20.03;;
11121;SDS011;5615;49.304;10.576;2024-01-30T01:35:03;33.13;;;21.07;;
11121;SDS011;5615;49.304;10.576;2024-01-30T01:37:31;27.93;;;20.33;;
11121;SDS011;5615;49.304;10.576;2024-01-30T01:39:58;26.87;;;19.10;;
11121;SDS011;5615;49.304;10.576;2024-01-30T01:42:24;30.17;;;20.30;;
11121;SDS011;5615;49.304;10.576;2024-01-30T01:44:51;29.23;;;18.73;;
11121;SDS011;5615;49.304;10.576;2024-01-30T01:47:18;29.97;;;20.00;;
11121;SDS011;5615;49.304;10.576;2024-01-30T01:49:44;26.70;;;18.37;;
11121;SDS011;5615;49.304;10.576;2024-01-30T01:52:12;29.80;;;19.90;;
11121;SDS011;5615;49.304;10.576;2024-01-30T01:54:39;26.40;;;19.13;;
11121;SDS011;5615;49.304;10.576;2024-01-30T01:57:06;27.63;;;19.37;;
11121;SDS011;5615;49.304;10.576;2024-01-30T01:59:33;29.57;;;20.20;;
11121;SDS011;5615;49.304;10.576;2024-01-30T02:02:00;28.67;;;19.23;;
11121;SDS011;5615;49.304;10.576;2024-01-30T02:04:29;27.47;;;19.70;;
11121;SDS011;5615;49.304;10.576;2024-01-30T02:06:56;27.87;;;19.30;;
11121;SDS011;5615;49.304;10.576;2024-01-30T02:09:24;25.53;;;18.87;;
11121;SDS011;5615;49.304;10.576;2024-01-30T02:11:51;29.97;;;19.10;;
11121;SDS011;5615;49.304;10.576;2024-01-30T02:14:17;27.13;;;18.13;;
11121;SDS011;5615;49.304;10.576;2024-01-30T02:16:44;29.30;;;20.17;;
11121;SDS011;5615;49.304;10.576;2024-01-30T02:19:11;27.63;;;20.67;;
11121;SDS011;5615;49.304;10.576;2024-01-30T02:21:39;34.97;;;24.63;;
11121;SDS011;5615;49.304;10.576;2024-01-30T02:24:05;42.17;;;24.33;;
11121;SDS011;5615;49.304;10.576;2024-01-30T02:26:32;29.47;;;21.43;;
11121;SDS011;5615;49.304;10.576;2024-01-30T02:28:59;30.67;;;20.77;;
11121;SDS011;5615;49.304;10.576;2024-01-30T02:31:25;29.17;;;20.03;;
11121;SDS011;5615;49.304;10.576;2024-01-30T02:33:53;30.03;;;19.80;;
11121;SDS011;5615;49.304;10.576;2024-01-30T02:36:20;25.90;;;19.23;;
11121;SDS011;5615;49.304;10.576;2024-01-30T02:38:48;27.43;;;19.03;;
11121;SDS011;5615;49.304;10.576;2024-01-30T02:41:14;26.67;;;18.93;;
11121;SDS011;5615;49.304;10.576;2024-01-30T02:43:41;27.50;;;18.57;;
11121;SDS011;5615;49.304;10.576;2024-01-30T02:46:08;30.50;;;18.87;;
11121;SDS011;5615;49.304;10.576;2024-01-30T02:48:34;34.23;;;18.80;;
11121;SDS011;5615;49.304;10.576;2024-01-30T02:51:01;24.70;;;17.90;;
11121;SDS011;5615;49.304;10.576;2024-01-30T02:53:28;28.77;;;19.17;;
11121;SDS011;5615;49.304;10.576;2024-01-30T02:55:56;27.63;;;18.83;;
11121;SDS011;5615;49.304;10.576;2024-01-30T02:58:22;29.17;;;19.67;;
11121;SDS011;5615;49.304;10.576;2024-01-30T03:00:49;27.60;;;18.10;;
11121;SDS011;5615;49.304;10.576;2024-01-30T03:03:15;27.90;;;19.10;;
11121;SDS011;5615;49.304;10.576;2024-01-30T03:05:41;26.60;;;19.07;;
11121;SDS011;5615;49.304;10.576;2024-01-30T03:08:08;29.80;;;18.90;;
11121;SDS011;5615;49.304;10.576;2024-01-30T03:10:35;26.97;;;18.63;;
11121;SDS011;5615;49.304;10.576;2024-01-30T03:13:03;26.63;;;18.33;;
11121;SDS011;5615;49.304;10.576;2024-01-30T03:15:30;25.77;;;18.33;;
11121;SDS011;5615;49.304;10.576;2024-01-30T03:17:57;27.03;;;18.67;;
11121;SDS011;5615;49.304;10.576;2024-01-30T03:20:24;28.47;;;18.10;;
11121;SDS011;5615;49.304;10.576;2024-01-30T03:22:50;32.63;;;23.07;;
11121;SDS011;5615;49.304;10.576;2024-01-30T03:25:17;36.03;;;22.27;;
11121;SDS011;5615;49.304;10.576;2024-01-30T03:27:44;35.27;;;21.17;;
11121;SDS011;5615;49.304;10.576;2024-01-30T03:30:12;31.20;;;20.70;;
11121;SDS011;5615;49.304;10.576;2024-01-30T03:32:38;32.07;;;21.07;;
11121;SDS011;5615;49.304;10.576;2024-01-30T03:35:05;28.13;;;21.03;;
11121;SDS011;5615;49.304;10.576;2024-01-30T03:37:32;35.20;;;21.77;;
11121;SDS011;5615;49.304;10.576;2024-01-30T03:39:59;35.63;;;22.83;;
11121;SDS011;5615;49.304;10.576;2024-01-30T03:42:26;30.43;;;20.80;;
11121;SDS011;5615;49.304;10.576;2024-01-30T03:44:52;30.23;;;21.07;;
11121;SDS011;5615;49.304;10.576;2024-01-30T03:47:21;32.20;;;20.67;;
11121;SDS011;5615;49.304;10.576;2024-01-30T03:49:48;29.30;;;20.80;;
11121;SDS011;5615;49.304;10.576;2024-01-30T03:52:14;28.93;;;19.90;;
11121;SDS011;5615;49.304;10.576;2024-01-30T03:54:41;29.60;;;19.27;;
11121;SDS011;5615;49.304;10.576;2024-01-30T03:57:08;28.90;;;19.53;;
11121;SDS011;5615;49.304;10.576;2024-01-30T03:59:34;29.17;;;20.13;;
11121;SDS011;5615;49.304;10.576;2024-01-30T04:02:01;27.00;;;19.67;;
11121;SDS011;5615;49.304;10.576;2024-01-30T04:04:29;27.70;;;19.93;;
11121;SDS011;5615;49.304;10.576;2024-01-30T04:06:56;29.23;;;19.77;;
11121;SDS011;5615;49.304;10.576;2024-01-30T04:09:22;30.83;;;20.90;;
11121;SDS011;5615;49.304;10.576;2024-01-30T04:11:51;30.20;;;20.67;;
11121;SDS011;5615;49.304;10.576;2024-01-30T04:14:18;28.37;;;20.03;;
11121;SDS011;5615;49.304;10.576;2024-01-30T04:16:44;28.60;;;19.87;;
11121;SDS011;5615;49.304;10.576;2024-01-30T04:19:11;28.50;;;19.60;;
11121;SDS011;5615;49.304;10.576;2024-01-30T04:21:39;29.03;;;20.63;;
11121;SDS011;5615;49.304;10.576;2024-01-30T04:24:06;26.93;;;20.37;;
11121;SDS011;5615;49.304;10.576;2024-01-30T04:26:32;27.47;;;19.43;;
11121;SDS011;5615;49.304;10.576;2024-01-30T04:28:58;30.00;;;19.50;;
11121;SDS011;5615;49.304;10.576;2024-01-30T04:31:24;27.90;;;19.70;;
11121;SDS011;5615;49.304;10.576;2024-01-30T04:33:51;27.20;;;19.17;;
11121;SDS011;5615;49.304;10.576;2024-01-30T04:36:18;28.27;;;19.23;;
11121;SDS011;5615;49.304;10.576;2024-01-30T04:38:46;26.07;;;19.50;;
11121;SDS011;5615;49.304;10.576;2024-01-30T04:41:12;27.73;;;19.37;;
11121;SDS011;5615;49.304;10.576;2024-01-30T04:43:39;25.17;;;18.63;;
11121;SDS011;5615;49.304;10.576;2024-01-30T04:46:06;27.67;;;19.90;;
11121;SDS011;5615;49.304;10.576;2024-01-30T04:48:32;25.77;;;19.20;;
11121;SDS011;5615;49.304;10.576;2024-01-30T04:50:59;26.90;;;19.30;;
11121;SDS011;5615;49.304;10.576;2024-01-30T04:53:29;24.77;;;17.87;;
11121;SDS011;5615;49.304;10.576;2024-01-30T04:55:57;28.17;;;19.10;;
11121;SDS011;5615;49.304;10.576;2024-01-30T04:58:24;29.03;;;19.70;;
11121;SDS011;5615;49.304;10.576;2024-01-30T05:00:50;26.80;;;19.57;;
11121;SDS011;5615;49.304;10.576;2024-01-30T05:03:17;29.67;;;19.27;;
11121;SDS011;5615;49.304;10.576;2024-01-30T05:05:44;29.20;;;19.03;;
11121;SDS011;5615;49.304;10.576;2024-01-30T05:08:10;28.17;;;19.07;;
11121;SDS011;5615;49.304;10.576;2024-01-30T05:10:37;27.00;;;18.70;;
11121;SDS011;5615;49.304;10.576;2024-01-30T05:13:05;30.13;;;18.47;;
11121;SDS011;5615;49.304;10.576;2024-01-30T05:15:32;28.53;;;18.70;;
11121;SDS011;5615;49.304;10.576;2024-01-30T05:17:58;29.17;;;19.07;;
11121;SDS011;5615;49.304;10.576;2024-01-30T05:20:25;26.73;;;17.77;;
11121;SDS011;5615;49.304;10.576;2024-01-30T05:22:53;28.83;;;18.47;;
11121;SDS011;5615;49.304;10.576;2024-01-30T05:25:19;27.57;;;18.87;;
11121;SDS011;5615;49.304;10.576;2024-01-30T05:27:46;25.10;;;18.80;;
11121;SDS011;5615;49.304;10.576;2024-01-30T05:30:14;31.23;;;19.23;;
11121;SDS011;5615;49.304;10.576;2024-01-30T05:32:41;34.43;;;20.30;;
11121;SDS011;5615;49.304;10.576;2024-01-30T05:35:07;27.43;;;19.50;;
11121;SDS011;5615;49.304;10.576;2024-01-30T05:37:34;27.43;;;18.20;;
11121;SDS011;5615;49.304;10.576;2024-01-30T05:40:00;30.53;;;19.53;;
11121;SDS011;5615;49.304;10.576;2024-01-30T05:42:28;29.60;;;19.40;;
11121;SDS011;5615;49.304;10.576;2024-01-30T05:44:54;28.33;;;19.23;;
11121;SDS011;5615;49.304;10.576;2024-01-30T05:47:23;29.50;;;19.47;;
11121;SDS011;5615;49.304;10.576;2024-01-30T05:49:50;29.37;;;20.23;;
11121;SDS011;5615;49.304;10.576;2024-01-30T05:52:16;31.60;;;21.03;;
11121;SDS011;5615;49.304;10.576;2024-01-30T05:54:44;32.43;;;20.80;;
11121;SDS011;5615;49.304;10.576;2024-01-30T05:57:10;31.80;;;21.17;;
11121;SDS011;5615;49.304;10.576;2024-01-30T05:59:37;29.43;;;21.03;;
11121;SDS011;5615;49.304;10.576;2024-01-30T06:02:04;28.00;;;21.07;;
11121;SDS011;5615;49.304;10.576;2024-01-30T06:04:32;30.67;;;20.90;;
11121;SDS011;5615;49.304;10.576;2024-01-30T06:06:58;30.30;;;20.87;;
11121;SDS011;5615;49.304;10.576;2024-01-30T06:09:26;29.60;;;19.70;;
11121;SDS011;5615;49.304;10.576;2024-01-30T06:11:53;32.90;;;20.23;;
11121;SDS011;5615;49.304;10.576;2024-01-30T06:14:20;29.70;;;20.07;;
11121;SDS011;5615;49.304;10.576;2024-01-30T06:16:47;29.63;;;20.67;;
11121;SDS011;5615;49.304;10.576;2024-01-30T06:19:13;33.07;;;21.60;;
11121;SDS011;5615;49.304;10.576;2024-01-30T06:21:41;31.77;;;20.87;;
11121;SDS011;5615;49.304;10.576;2024-01-30T06:24:08;34.17;;;22.43;;
11121;SDS011;5615;49.304;10.576;2024-01-30T06:26:35;39.00;;;23.00;;
11121;SDS011;5615;49.304;10.576;2024-01-30T06:29:02;35.23;;;22.70;;
11121;SDS011;5615;49.304;10.576;2024-01-30T06:31:28;34.53;;;23.03;;
11121;SDS011;5615;49.304;10.576;2024-01-30T06:33:56;35.97;;;22.63;;
11121;SDS011;5615;49.304;10.576;2024-01-30T06:36:22;34.50;;;22.27;;
11121;SDS011;5615;49.304;10.576;2024-01-30T06:38:50;35.80;;;23.00;;
11121;SDS011;5615;49.304;10.576;2024-01-30T06:41:17;32.13;;;20.93;;
11121;SDS011;5615;49.304;10.576;2024-01-30T06:43:44;40.27;;;22.97;;
11121;SDS011;5615;49.304;10.576;2024-01-30T06:46:11;33.93;;;22.30;;
11121;SDS011;5615;49.304;10.576;2024-01-30T06:48:37;34.47;;;22.83;;
11121;SDS011;5615;49.304;10.576;2024-01-30T06:51:05;33.23;;;23.20;;
11121;SDS011;5615;49.304;10.576;2024-01-30T06:53:32;31.27;;;22.23;;
11121;SDS011;5615;49.304;10.576;2024-01-30T06:56:00;32.97;;;22.37;;
11121;SDS011;5615;49.304;10.576;2024-01-30T06:58:26;36.40;;;21.87;;
11121;SDS011;5615;49.304;10.576;2024-01-30T07:00:53;31.53;;;21.67;;
11121;SDS011;5615;49.304;10.576;2024-01-30T07:03:20;39.63;;;23.47;;
11121;SDS011;5615;49.304;10.576;2024-01-30T07:05:47;34.10;;;22.30;;
11121;SDS011;5615;49.304;10.576;2024-01-30T07:08:13;34.40;;;21.17;;
11121;SDS011;5615;49.304;10.576;2024-01-30T07:10:42;29.40;;;20.70;;
11121;SDS011;5615;49.304;10.576;2024-01-30T07:13:10;36.67;;;20.93;;
11121;SDS011;5615;49.304;10.576;2024-01-30T07:15:37;32.23;;;22.90;;
11121;SDS011;5615;49.304;10.576;2024-01-30T07:18:04;27.60;;;21.10;;
11121;SDS011;5615;49.304;10.576;2024-01-30T07:20:31;28.67;;;20.20;;
11121;SDS011;5615;49.304;10.576;2024-01-30T07:22:58;28.63;;;20.20;;
11121;SDS011;5615;49.304;10.576;2024-01-30T07:25:24;30.07;;;20.90;;
11121;SDS011;5615;49.304;10.576;2024-01-30T07:27:51;34.63;;;21.63;;
11121;SDS011;5615;49.304;10.576;2024-01-30T07:30:20;32.47;;;21.63;;
11121;SDS011;5615;49.304;10.576;2024-01-30T07:32:46;36.30;;;22.33;;
11121;SDS011;5615;49.304;10.576;2024-01-30T07:35:13;33.00;;;20.87;;
11121;SDS011;5615;49.304;10.576;2024-01-30T07:37:40;30.60;;;20.57;;
11121;SDS011;5615;49.304;10.576;2024-01-30T07:40:07;31.70;;;21.30;;
11121;SDS011;5615;49.304;10.576;2024-01-30T07:42:34;31.33;;;22.23;;
11121;SDS011;5615;49.304;10.576;2024-01-30T07:45:01;28.40;;;21.07;;
11121;SDS011;5615;49.304;10.576;2024-01-30T07:47:29;31.43;;;21.43;;
11121;SDS011;5615;49.304;10.576;2024-01-30T07:49:55;28.83;;;20.30;;
11121;SDS011;5615;49.304;10.576;2024-01-30T07:52:22;27.27;;;20.63;;
11121;SDS011;5615;49.304;10.576;2024-01-30T07:54:49;27.77;;;20.33;;
11121;SDS011;5615;49.304;10.576;2024-01-30T07:57:15;26.23;;;19.47;;
11121;SDS011;5615;49.304;10.576;2024-01-30T07:59:42;29.83;;;21.43;;
11121;SDS011;5615;49.304;10.576;2024-01-30T08:02:10;32.43;;;20.97;;
11121;SDS011;5615;49.304;10.576;2024-01-30T08:04:38;30.90;;;21.03;;
11121;SDS011;5615;49.304;10.576;2024-01-30T08:07:05;27.53;;;20.10;;
11121;SDS011;5615;49.304;10.576;2024-01-30T08:09:32;28.57;;;20.03;;
11121;SDS011;5615;49.304;10.576;2024-01-30T08:11:59;30.30;;;20.13;;
11121;SDS011;5615;49.304;10.576;2024-01-30T08:14:25;25.80;;;20.03;;
11121;SDS011;5615;49.304;10.576;2024-01-30T08:16:53;25.23;;;18.57;;
11121;SDS011;5615;49.304;10.576;2024-01-30T08:19:20;26.60;;;18.43;;
11121;SDS011;5615;49.304;10.576;2024-01-30T08:21:48;29.30;;;19.83;;
11121;SDS011;5615;49.304;10.576;2024-01-30T08:24:15;26.60;;;19.40;;
11121;SDS011;5615;49.304;10.576;2024-01-30T08:26:41;25.10;;;17.47;;
11121;SDS011;5615;49.304;10.576;2024-01-30T08:29:08;25.20;;;17.80;;
11121;SDS011;5615;49.304;10.576;2024-01-30T08:31:35;27.27;;;18.70;;
11121;SDS011;5615;49.304;10.576;2024-01-30T08:34:01;23.83;;;17.27;;
11121;SDS011;5615;49.304;10.576;2024-01-30T08:36:28;26.87;;;18.33;;
11121;SDS011;5615;49.304;10.576;2024-01-30T08:38:56;24.67;;;17.90;;
11121;SDS011;5615;49.304;10.576;2024-01-30T08:41:23;27.70;;;18.90;;
11121;SDS011;5615;49.304;10.576;2024-01-30T08:43:50;27.70;;;19.43;;
11121;SDS011;5615;49.304;10.576;2024-01-30T08:46:17;28.87;;;19.23;;
11121;SDS011;5615;49.304;10.576;2024-01-30T08:48:43;27.37;;;18.77;;
11121;SDS011;5615;49.304;10.576;2024-01-30T08:51:10;27.50;;;19.53;;
11121;SDS011;5615;49.304;10.576;2024-01-30T08:53:37;25.13;;;18.83;;
11121;SDS011;5615;49.304;10.576;2024-01-30T08:56:05;24.60;;;18.87;;
11121;SDS011;5615;49.304;10.576;2024-01-30T08:58:33;24.23;;;18.87;;
11121;SDS011;5615;49.304;10.576;2024-01-30T09:00:59;25.60;;;18.70;;
11121;SDS011;5615;49.304;10.576;2024-01-30T09:03:26;23.97;;;18.53;;
11121;SDS011;5615;49.304;10.576;2024-01-30T09:05:53;25.10;;;18.17;;
11121;SDS011;5615;49.304;10.576;2024-01-30T09:08:19;22.60;;;17.20;;
11121;SDS011;5615;49.304;10.576;2024-01-30T09:10:46;23.27;;;18.50;;
11121;SDS011;5615;49.304;10.576;2024-01-30T09:13:14;22.13;;;17.40;;
11121;SDS011;5615;49.304;10.576;2024-01-30T09:15:41;25.00;;;17.33;;
11121;SDS011;5615;49.304;10.576;2024-01-30T09:18:09;19.27;;;16.30;;
11121;SDS011;5615;49.304;10.576;2024-01-30T09:20:35;25.17;;;17.30;;
11121;SDS011;5615;49.304;10.576;2024-01-30T09:23:02;25.83;;;17.83;;
11121;SDS011;5615;49.304;10.576;2024-01-30T09:25:29;20.93;;;16.80;;
11121;SDS011;5615;49.304;10.576;2024-01-30T09:27:56;23.30;;;17.53;;
11121;SDS011;5615;49.304;10.576;2024-01-30T09:30:24;25.10;;;17.97;;
11121;SDS011;5615;49.304;10.576;2024-01-30T09:32:50;27.63;;;17.93;;
11121;SDS011;5615;49.304;10.576;2024-01-30T09:35:17;24.37;;;16.67;;
11121;SDS011;5615;49.304;10.576;2024-01-30T09:37:44;20.53;;;17.00;;
11121;SDS011;5615;49.304;10.576;2024-01-30T09:40:10;21.90;;;16.90;;
11121;SDS011;5615;49.304;10.576;2024-01-30T09:42:37;20.73;;;16.93;;
11121;SDS011;5615;49.304;10.576;2024-01-30T09:45:04;21.73;;;16.53;;
11121;SDS011;5615;49.304;10.576;2024-01-30T09:47:33;20.40;;;16.50;;
11121;SDS011;5615;49.304;10.576;2024-01-30T09:50:06;19.70;;;15.17;;
11121;SDS011;5615;49.304;10.576;2024-01-30T09:52:33;21.53;;;15.70;;
11121;SDS011;5615;49.304;10.576;2024-01-30T09:55:00;18.23;;;15.63;;
11121;SDS011;5615;49.304;10.576;2024-01-30T09:57:27;19.37;;;16.43;;
11121;SDS011;5615;49.304;10.576;2024-01-30T09:59:54;19.57;;;16.17;;
11121;SDS011;5615;49.304;10.576;2024-01-30T10:02:21;18.63;;;15.30;;
11121;SDS011;5615;49.304;10.576;2024-01-30T10:04:50;21.23;;;15.97;;
11121;SDS011;5615;49.304;10.576;2024-01-30T10:07:17;22.57;;;16.73;;
11121;SDS011;5615;49.304;10.576;2024-01-30T10:09:44;19.07;;;15.57;;
11121;SDS011;5615;49.304;10.576;2024-01-30T10:12:11;26.67;;;17.77;;
11121;SDS011;5615;49.304;10.576;2024-01-30T10:14:38;25.00;;;18.40;;
11121;SDS011;5615;49.304;10.576;2024-01-30T10:17:07;31.27;;;19.70;;
11121;SDS011;5615;49.304;10.576;2024-01-30T10:19:34;26.47;;;19.20;;
11121;SDS011;5615;49.304;10.576;2024-01-30T10:22:03;26.17;;;19.00;;
11121;SDS011;5615;49.304;10.576;2024-01-30T10:24:30;26.27;;;19.83;;
11121;SDS011;5615;49.304;10.576;2024-01-30T10:26:57;21.33;;;17.33;;
11121;SDS011;5615;49.304;10.576;2024-01-30T10:29:24;20.40;;;16.50;;
11121;SDS011;5615;49.304;10.576;2024-01-30T10:31:57;17.88;;;15.98;;
11121;SDS011;5615;49.304;10.576;2024-01-30T10:34:24;17.15;;;14.95;;
11121;SDS011;5615;49.304;10.576;2024-01-30T10:36:54;17.10;;;14.52;;
11121;SDS011;5615;49.304;10.576;2024-01-30T10:39:27;17.00;;;15.20;;
11121;SDS011;5615;49.304;10.576;2024-01-30T10:41:56;19.50;;;15.68;;
11121;SDS011;5615;49.304;10.576;2024-01-30T10:44:24;16.60;;;14.25;;
11121;SDS011;5615;49.304;10.576;2024-01-30T10:46:56;17.15;;;14.65;;
11121;SDS011;5615;49.304;10.576;2024-01-30T10:49:29;15.63;;;14.00;;
11121;SDS011;5615;49.304;10.576;2024-01-30T10:51:56;15.52;;;13.43;;
11121;SDS011;5615;49.304;10.576;2024-01-30T10:54:24;15.55;;;13.55;;
11121;SDS011;5615;49.304;10.576;2024-01-30T10:56:54;17.17;;;13.50;;
11121;SDS011;5615;49.304;10.576;2024-01-30T10:59:22;16.50;;;13.80;;
11121;SDS011;5615;49.304;10.576;2024-01-30T11:01:50;16.58;;;13.73;;
11121;SDS011;5615;49.304;10.576;2024-01-30T11:04:17;15.95;;;13.48;;
11121;SDS011;5615;49.304;10.576;2024-01-30T11:06:44;18.40;;;14.18;;
11121;SDS011;5615;49.304;10.576;2024-01-30T11:09:11;17.48;;;14.07;;
11121;SDS011;5615;49.304;10.576;2024-01-30T11:11:50;18.48;;;13.63;;
11121;SDS011;5615;49.304;10.576;2024-01-30T11:14:24;15.38;;;13.77;;
11121;SDS011;5615;49.304;10.576;2024-01-30T11:16:51;15.30;;;12.43;;
11121;SDS011;5615;49.304;10.576;2024-01-30T11:19:22;14.85;;;12.95;;
11121;SDS011;5615;49.304;10.576;2024-01-30T11:21:50;13.77;;;11.85;;
11121;SDS011;5615;49.304;10.576;2024-01-30T11:24:18;17.25;;;13.23;;
11121;SDS011;5615;49.304;10.576;2024-01-30T11:26:46;14.43;;;12.77;;
11121;SDS011;5615;49.304;10.576;2024-01-30T11:29:14;15.10;;;12.85;;
11121;SDS011;5615;49.304;10.576;2024-01-30T11:31:52;14.00;;;12.15;;
11121;SDS011;5615;49.304;10.576;2024-01-30T11:34:19;13.80;;;11.65;;
11121;SDS011;5615;49.304;10.576;2024-01-30T11:36:48;14.93;;;11.40;;
11121;SDS011;5615;49.304;10.576;2024-01-30T11:39:20;14.18;;;11.57;;
11121;SDS011;5615;49.304;10.576;2024-01-30T11:41:47;13.98;;;11.70;;
11121;SDS011;5615;49.304;10.576;2024-01-30T11:44:16;15.10;;;11.27;;
11121;SDS011;5615;49.304;10.576;2024-01-30T11:46:43;15.25;;;11.63;;
11121;SDS011;5615;49.304;10.576;2024-01-30T11:49:11;16.20;;;11.52;;
11121;SDS011;5615;49.304;10.576;2024-01-30T11:51:38;13.05;;;10.32;;
11121;SDS011;5615;49.304;10.576;2024-01-30T11:54:04;14.70;;;11.63;;
11121;SDS011;5615;49.304;10.576;2024-01-30T11:56:31;12.60;;;11.00;;
11121;SDS011;5615;49.304;10.576;2024-01-30T11:58:58;13.05;;;10.88;;
11121;SDS011;5615;49.304;10.576;2024-01-30T12:01:25;16.08;;;11.73;;
11121;SDS011;5615;49.304;10.576;2024-01-30T12:03:52;16.70;;;11.32;;
11121;SDS011;5615;49.304;10.576;2024-01-30T12:06:20;12.85;;;10.80;;
11121;SDS011;5615;49.304;10.576;2024-01-30T12:08:55;15.73;;;11.57;;
11121;SDS011;5615;49.304;10.576;2024-01-30T12:11:26;19.52;;;10.55;;
11121;SDS011;5615;49.304;10.576;2024-01-30T12:13:55;12.93;;;10.48;;
11121;SDS011;5615;49.304;10.576;2024-01-30T12:16:22;17.63;;;10.43;;
11121;SDS011;5615;49.304;10.576;2024-01-30T12:18:48;12.18;;;9.85;;
11121;SDS011;5615;49.304;10.576;2024-01-30T12:21:16;14.90;;;10.05;;
11121;SDS011;5615;49.304;10.576;2024-01-30T12:23:44;14.43;;;10.82;;
11121;SDS011;5615;49.304;10.576;2024-01-30T12:26:11;13.02;;;9.63;;
11121;SDS011;5615;49.304;10.576;2024-01-30T12:28:47;11.95;;;9.90;;
11121;SDS011;5615;49.304;10.576;2024-01-30T12:31:14;15.27;;;9.70;;
11121;SDS011;5615;49.304;10.576;2024-01-30T12:33:40;13.23;;;9.23;;
11121;SDS011;5615;49.304;10.576;2024-01-30T12:36:07;11.52;;;9.75;;
11121;SDS011;5615;49.304;10.576;2024-01-30T12:38:34;11.85;;;9.63;;
11121;SDS011;5615;49.304;10.576;2024-01-30T12:41:02;13.23;;;10.00;;
11121;SDS011;5615;49.304;10.576;2024-01-30T12:43:29;10.65;;;9.25;;
11121;SDS011;5615;49.304;10.576;2024-01-30T12:45:56;15.35;;;10.23;;
11121;SDS011;5615;49.304;10.576;2024-01-30T12:48:23;16.00;;;10.18;;
11121;SDS011;5615;49.304;10.576;2024-01-30T12:50:50;13.48;;;9.70;;
11121;SDS011;5615;49.304;10.576;2024-01-30T12:53:17;14.65;;;9.00;;
11121;SDS011;5615;49.304;10.576;2024-01-30T12:55:43;12.88;;;9.43;;
11121;SDS011;5615;49.304;10.576;2024-01-30T12:58:11;13.63;;;8.60;;
11121;SDS011;5615;49.304;10.576;2024-01-30T13:00:38;10.75;;;8.73;;
11121;SDS011;5615;49.304;10.576;2024-01-30T13:03:05;12.60;;;9.20;;
11121;SDS011;5615;49.304;10.576;2024-01-30T13:05:31;9.88;;;8.88;;
11121;SDS011;5615;49.304;10.576;2024-01-30T13:07:58;9.32;;;8.38;;
11121;SDS011;5615;49.304;10.576;2024-01-30T13:10:24;12.30;;;8.50;;
11121;SDS011;5615;49.304;10.576;2024-01-30T13:12:51;11.57;;;8.98;;
11121;SDS011;5615;49.304;10.576;2024-01-30T13:15:19;8.63;;;7.72;;
11121;SDS011;5615;49.304;10.576;2024-01-30T13:17:47;11.85;;;8.30;;
11121;SDS011;5615;49.304;10.576;2024-01-30T13:20:14;11.57;;;8.80;;
11121;SDS011;5615;49.304;10.576;2024-01-30T13:22:46;11.13;;;8.20;;
11121;SDS011;5615;49.304;10.576;2024-01-30T13:25:13;12.10;;;8.23;;
11121;SDS011;5615;49.304;10.576;2024-01-30T13:27:40;14.87;;;8.30;;
11121;SDS011;5615;49.304;10.576;2024-01-30T13:30:07;12.60;;;8.15;;
11121;SDS011;5615;49.304;10.576;2024-01-30T13:32:36;12.93;;;8.20;;
11121;SDS011;5615;49.304;10.576;2024-01-30T13:35:03;12.17;;;7.87;;
11121;SDS011;5615;49.304;10.576;2024-01-30T13:37:31;9.27;;;6.97;;
11121;SDS011;5615;49.304;10.576;2024-01-30T13:39:57;9.17;;;7.17;;
11121;SDS011;5615;49.304;10.576;2024-01-30T13:42:24;8.23;;;7.07;;
11121;SDS011;5615;49.304;10.576;2024-01-30T13:44:51;9.37;;;7.23;;
11121;SDS011;5615;49.304;10.576;2024-01-30T13:47:18;12.80;;;7.67;;
11121;SDS011;5615;49.304;10.576;2024-01-30T13:49:47;9.43;;;7.40;;
11121;SDS011;5615;49.304;10.576;2024-01-30T13:52:14;11.90;;;7.10;;
11121;SDS011;5615;49.304;10.576;2024-01-30T13:54:41;12.77;;;8.20;;
11121;SDS011;5615;49.304;10.576;2024-01-30T13:57:08;10.40;;;7.70;;
11121;SDS011;5615;49.304;10.576;2024-01-30T13:59:34;15.63;;;7.93;;
11121;SDS011;5615;49.304;10.576;2024-01-30T14:02:01;8.80;;;7.50;;
11121;SDS011;5615;49.304;10.576;2024-01-30T14:04:28;9.13;;;7.25;;
11121;SDS011;5615;49.304;10.576;2024-01-30T14:06:56;9.63;;;7.28;;
11121;SDS011;5615;49.304;10.576;2024-01-30T14:09:23;10.98;;;7.72;;
11121;SDS011;5615;49.304;10.576;2024-01-30T14:11:50;9.15;;;7.13;;
11121;SDS011;5615;49.304;10.576;2024-01-30T14:14:16;11.73;;;7.55;;
11121;SDS011;5615;49.304;10.576;2024-01-30T14:16:43;9.20;;;7.25;;
11121;SDS011;5615;49.304;10.576;2024-01-30T14:19:10;13.15;;;7.28;;
11121;SDS011;5615;49.304;10.576;2024-01-30T14:21:36;9.30;;;6.78;;
11121;SDS011;5615;49.304;10.576;2024-01-30T14:24:05;11.93;;;7.65;;